sensor_id;sensor_type;location;lat;lon;timestamp;P1;durP1;ratioP1;P2;durP2;ratioP2
8458;SDS011;4266;48.816;9.154;2022-08-03T00:00:50;4.17;;;3.87;;
8458;SDS011;4266;48.816;9.154;2022-08-03T00:03:15;4.40;;;3.37;;
8458;SDS011;4266;48.816;9.154;2022-08-03T00:05:41;4.00;;;3.70;;
8458;SDS011;4266;48.816;9.154;2022-08-03T00:08:07;4.07;;;3.77;;
8458;SDS011;4266;48.816;9.154;2022-08-03T00:10:33;4.07;;;3.77;;
8458;SDS011;4266;48.816;9.154;2022-08-03T00:12:59;3.80;;;3.60;;
8458;SDS011;4266;48.816;9.154;2022-08-03T00:15:24;4.00;;;3.70;;
8458;SDS011;4266;48.816;9.154;2022-08-03T00:17:50;4.10;;;3.75;;
8458;SDS011;4266;48.816;9.154;2022-08-03T00:20:16;3.92;;;3.62;;
8458;SDS011;4266;48.816;9.154;2022-08-03T00:22:42;4.53;;;4.15;;
8458;SDS011;4266;48.816;9.154;2022-08-03T00:25:07;4.25;;;3.83;;
8458;SDS011;4266;48.816;9.154;2022-08-03T00:27:33;4.18;;;3.80;;
8458;SDS011;4266;48.816;9.154;2022-08-03T00:29:59;5.10;;;4.15;;
8458;SDS011;4266;48.816;9.154;2022-08-03T00:32:24;4.55;;;4.15;;
8458;SDS011;4266;48.816;9.154;2022-08-03T00:34:51;4.40;;;4.00;;
8458;SDS011;4266;48.816;9.154;2022-08-03T00:37:16;4.20;;;3.90;;
8458;SDS011;4266;48.816;9.154;2022-08-03T00:39:42;4.27;;;4.00;;
8458;SDS011;4266;48.816;9.154;2022-08-03T00:42:08;3.87;;;3.58;;
8458;SDS011;4266;48.816;9.154;2022-08-03T00:44:38;6.43;;;3.90;;
8458;SDS011;4266;48.816;9.154;2022-08-03T00:47:04;3.90;;;3.60;;
8458;SDS011;4266;48.816;9.154;2022-08-03T00:49:29;3.80;;;3.50;;
8458;SDS011;4266;48.816;9.154;2022-08-03T00:51:55;4.23;;;3.90;;
8458;SDS011;4266;48.816;9.154;2022-08-03T00:54:21;4.40;;;4.03;;
8458;SDS011;4266;48.816;9.154;2022-08-03T00:56:48;7.87;;;4.17;;
8458;SDS011;4266;48.816;9.154;2022-08-03T00:59:14;4.10;;;3.80;;
8458;SDS011;4266;48.816;9.154;2022-08-03T01:01:39;4.07;;;3.78;;
8458;SDS011;4266;48.816;9.154;2022-08-03T01:04:05;4.07;;;3.87;;
8458;SDS011;4266;48.816;9.154;2022-08-03T01:06:35;4.13;;;3.73;;
8458;SDS011;4266;48.816;9.154;2022-08-03T01:09:01;5.37;;;4.13;;
8458;SDS011;4266;48.816;9.154;2022-08-03T01:11:39;4.83;;;4.43;;
8458;SDS011;4266;48.816;9.154;2022-08-03T01:14:09;4.53;;;4.20;;
8458;SDS011;4266;48.816;9.154;2022-08-03T01:16:43;5.30;;;4.83;;
8458;SDS011;4266;48.816;9.154;2022-08-03T01:19:35;5.70;;;5.10;;
8458;SDS011;4266;48.816;9.154;2022-08-03T01:22:09;7.43;;;4.70;;
8458;SDS011;4266;48.816;9.154;2022-08-03T01:24:42;5.07;;;4.57;;
8458;SDS011;4266;48.816;9.154;2022-08-03T01:27:08;4.40;;;4.10;;
8458;SDS011;4266;48.816;9.154;2022-08-03T01:32:21;4.50;;;4.10;;
8458;SDS011;4266;48.816;9.154;2022-08-03T01:34:47;6.70;;;4.53;;
8458;SDS011;4266;48.816;9.154;2022-08-03T01:37:14;6.27;;;4.00;;
8458;SDS011;4266;48.816;9.154;2022-08-03T01:39:38;4.17;;;3.90;;
8458;SDS011;4266;48.816;9.154;2022-08-03T01:42:04;4.90;;;4.50;;
8458;SDS011;4266;48.816;9.154;2022-08-03T01:44:32;4.53;;;4.13;;
8458;SDS011;4266;48.816;9.154;2022-08-03T01:46:58;6.90;;;4.80;;
8458;SDS011;4266;48.816;9.154;2022-08-03T01:49:24;5.20;;;4.70;;
8458;SDS011;4266;48.816;9.154;2022-08-03T01:51:50;6.33;;;5.37;;
8458;SDS011;4266;48.816;9.154;2022-08-03T01:54:15;4.93;;;4.40;;
8458;SDS011;4266;48.816;9.154;2022-08-03T01:56:41;6.33;;;4.47;;
8458;SDS011;4266;48.816;9.154;2022-08-03T01:59:07;4.70;;;4.30;;
8458;SDS011;4266;48.816;9.154;2022-08-03T02:01:33;6.60;;;4.60;;
8458;SDS011;4266;48.816;9.154;2022-08-03T02:03:59;4.67;;;4.37;;
8458;SDS011;4266;48.816;9.154;2022-08-03T02:06:25;4.43;;;4.03;;
8458;SDS011;4266;48.816;9.154;2022-08-03T02:08:50;4.97;;;4.47;;
8458;SDS011;4266;48.816;9.154;2022-08-03T02:11:16;4.23;;;3.93;;
8458;SDS011;4266;48.816;9.154;2022-08-03T02:13:42;4.80;;;4.40;;
8458;SDS011;4266;48.816;9.154;2022-08-03T02:16:08;5.87;;;4.37;;
8458;SDS011;4266;48.816;9.154;2022-08-03T02:18:33;4.40;;;4.10;;
8458;SDS011;4266;48.816;9.154;2022-08-03T02:20:59;5.00;;;4.50;;
8458;SDS011;4266;48.816;9.154;2022-08-03T02:23:24;4.70;;;4.30;;
8458;SDS011;4266;48.816;9.154;2022-08-03T02:25:51;5.67;;;5.17;;
8458;SDS011;4266;48.816;9.154;2022-08-03T02:28:16;6.43;;;4.53;;
8458;SDS011;4266;48.816;9.154;2022-08-03T02:30:42;10.00;;;4.70;;
8458;SDS011;4266;48.816;9.154;2022-08-03T02:33:10;6.37;;;5.87;;
8458;SDS011;4266;48.816;9.154;2022-08-03T02:35:34;5.10;;;4.70;;
8458;SDS011;4266;48.816;9.154;2022-08-03T02:38:01;4.73;;;4.43;;
8458;SDS011;4266;48.816;9.154;2022-08-03T02:40:26;5.10;;;4.60;;
8458;SDS011;4266;48.816;9.154;2022-08-03T02:42:52;5.10;;;4.70;;
8458;SDS011;4266;48.816;9.154;2022-08-03T02:45:17;5.03;;;4.53;;
8458;SDS011;4266;48.816;9.154;2022-08-03T02:47:43;5.00;;;4.60;;
8458;SDS011;4266;48.816;9.154;2022-08-03T02:50:09;5.53;;;5.07;;
8458;SDS011;4266;48.816;9.154;2022-08-03T02:52:34;5.50;;;4.93;;
8458;SDS011;4266;48.816;9.154;2022-08-03T02:55:01;5.80;;;5.30;;
8458;SDS011;4266;48.816;9.154;2022-08-03T02:57:26;5.47;;;4.97;;
8458;SDS011;4266;48.816;9.154;2022-08-03T02:59:52;6.13;;;5.63;;
8458;SDS011;4266;48.816;9.154;2022-08-03T03:02:17;5.20;;;4.80;;
8458;SDS011;4266;48.816;9.154;2022-08-03T03:04:45;6.33;;;5.83;;
8458;SDS011;4266;48.816;9.154;2022-08-03T03:07:11;6.03;;;5.60;;
8458;SDS011;4266;48.816;9.154;2022-08-03T03:09:37;7.33;;;4.67;;
8458;SDS011;4266;48.816;9.154;2022-08-03T03:12:03;5.23;;;4.90;;
8458;SDS011;4266;48.816;9.154;2022-08-03T03:14:29;5.83;;;5.37;;
8458;SDS011;4266;48.816;9.154;2022-08-03T03:16:55;7.93;;;5.37;;
8458;SDS011;4266;48.816;9.154;2022-08-03T03:19:21;10.67;;;4.80;;
8458;SDS011;4266;48.816;9.154;2022-08-03T03:21:47;5.13;;;4.73;;
8458;SDS011;4266;48.816;9.154;2022-08-03T03:24:12;4.63;;;4.33;;
8458;SDS011;4266;48.816;9.154;2022-08-03T03:26:38;4.97;;;4.47;;
8458;SDS011;4266;48.816;9.154;2022-08-03T03:29:04;4.87;;;4.57;;
8458;SDS011;4266;48.816;9.154;2022-08-03T03:31:30;4.70;;;4.30;;
8458;SDS011;4266;48.816;9.154;2022-08-03T03:33:56;5.30;;;4.90;;
8458;SDS011;4266;48.816;9.154;2022-08-03T03:36:23;4.67;;;4.37;;
8458;SDS011;4266;48.816;9.154;2022-08-03T03:38:48;6.27;;;4.67;;
8458;SDS011;4266;48.816;9.154;2022-08-03T03:41:14;4.40;;;4.10;;
8458;SDS011;4266;48.816;9.154;2022-08-03T03:43:40;4.40;;;4.10;;
8458;SDS011;4266;48.816;9.154;2022-08-03T03:46:20;4.37;;;4.07;;
8458;SDS011;4266;48.816;9.154;2022-08-03T03:48:46;4.73;;;4.43;;
8458;SDS011;4266;48.816;9.154;2022-08-03T03:51:12;4.63;;;4.27;;
8458;SDS011;4266;48.816;9.154;2022-08-03T03:53:37;4.90;;;4.43;;
8458;SDS011;4266;48.816;9.154;2022-08-03T03:56:03;4.47;;;4.17;;
8458;SDS011;4266;48.816;9.154;2022-08-03T03:58:29;4.77;;;4.40;;
8458;SDS011;4266;48.816;9.154;2022-08-03T04:00:54;4.70;;;4.40;;
8458;SDS011;4266;48.816;9.154;2022-08-03T04:03:21;4.70;;;4.30;;
8458;SDS011;4266;48.816;9.154;2022-08-03T04:05:46;7.40;;;5.07;;
8458;SDS011;4266;48.816;9.154;2022-08-03T04:08:19;5.70;;;5.20;;
8458;SDS011;4266;48.816;9.154;2022-08-03T04:11:26;6.10;;;5.60;;
8458;SDS011;4266;48.816;9.154;2022-08-03T04:13:36;5.17;;;4.77;;
8458;SDS011;4266;48.816;9.154;2022-08-03T04:16:02;4.57;;;4.23;;
8458;SDS011;4266;48.816;9.154;2022-08-03T04:18:28;4.77;;;4.47;;
8458;SDS011;4266;48.816;9.154;2022-08-03T04:20:53;5.20;;;4.70;;
8458;SDS011;4266;48.816;9.154;2022-08-03T04:23:20;6.23;;;5.17;;
8458;SDS011;4266;48.816;9.154;2022-08-03T04:25:45;5.07;;;4.67;;
8458;SDS011;4266;48.816;9.154;2022-08-03T04:28:12;6.90;;;4.70;;
8458;SDS011;4266;48.816;9.154;2022-08-03T04:30:37;5.90;;;4.87;;
8458;SDS011;4266;48.816;9.154;2022-08-03T04:33:03;4.63;;;4.23;;
8458;SDS011;4266;48.816;9.154;2022-08-03T04:35:30;5.07;;;4.73;;
8458;SDS011;4266;48.816;9.154;2022-08-03T04:37:55;5.00;;;4.37;;
8458;SDS011;4266;48.816;9.154;2022-08-03T04:40:26;5.30;;;4.80;;
8458;SDS011;4266;48.816;9.154;2022-08-03T04:42:50;4.70;;;4.23;;
8458;SDS011;4266;48.816;9.154;2022-08-03T04:45:16;5.67;;;5.17;;
8458;SDS011;4266;48.816;9.154;2022-08-03T04:47:41;5.73;;;5.23;;
8458;SDS011;4266;48.816;9.154;2022-08-03T04:50:08;5.50;;;5.00;;
8458;SDS011;4266;48.816;9.154;2022-08-03T04:52:34;5.70;;;5.20;;
8458;SDS011;4266;48.816;9.154;2022-08-03T04:54:59;4.90;;;4.57;;
8458;SDS011;4266;48.816;9.154;2022-08-03T04:57:25;6.70;;;5.10;;
8458;SDS011;4266;48.816;9.154;2022-08-03T04:59:51;6.20;;;4.65;;
8458;SDS011;4266;48.816;9.154;2022-08-03T05:02:17;5.37;;;4.87;;
8458;SDS011;4266;48.816;9.154;2022-08-03T05:04:43;5.75;;;5.35;;
8458;SDS011;4266;48.816;9.154;2022-08-03T05:07:09;6.40;;;5.05;;
8458;SDS011;4266;48.816;9.154;2022-08-03T05:09:35;6.82;;;4.90;;
8458;SDS011;4266;48.816;9.154;2022-08-03T05:12:00;5.07;;;4.57;;
8458;SDS011;4266;48.816;9.154;2022-08-03T05:14:26;6.28;;;5.60;;
8458;SDS011;4266;48.816;9.154;2022-08-03T05:16:52;4.90;;;4.50;;
8458;SDS011;4266;48.816;9.154;2022-08-03T05:19:17;5.10;;;4.75;;
8458;SDS011;4266;48.816;9.154;2022-08-03T05:21:44;5.60;;;5.10;;
8458;SDS011;4266;48.816;9.154;2022-08-03T05:24:09;7.57;;;4.53;;
8458;SDS011;4266;48.816;9.154;2022-08-03T05:26:35;5.50;;;5.00;;
8458;SDS011;4266;48.816;9.154;2022-08-03T05:29:01;5.18;;;4.78;;
8458;SDS011;4266;48.816;9.154;2022-08-03T05:31:26;4.78;;;4.28;;
8458;SDS011;4266;48.816;9.154;2022-08-03T05:33:52;7.30;;;4.78;;
8458;SDS011;4266;48.816;9.154;2022-08-03T05:36:18;6.32;;;5.00;;
8458;SDS011;4266;48.816;9.154;2022-08-03T05:38:44;5.50;;;4.97;;
8458;SDS011;4266;48.816;9.154;2022-08-03T05:41:09;5.45;;;4.70;;
8458;SDS011;4266;48.816;9.154;2022-08-03T05:43:35;7.15;;;4.82;;
8458;SDS011;4266;48.816;9.154;2022-08-03T05:46:01;5.18;;;4.68;;
8458;SDS011;4266;48.816;9.154;2022-08-03T05:48:27;7.53;;;5.10;;
8458;SDS011;4266;48.816;9.154;2022-08-03T05:50:53;5.53;;;5.10;;
8458;SDS011;4266;48.816;9.154;2022-08-03T05:53:19;6.85;;;4.70;;
8458;SDS011;4266;48.816;9.154;2022-08-03T05:55:45;5.50;;;5.00;;
8458;SDS011;4266;48.816;9.154;2022-08-03T05:58:10;5.40;;;4.78;;
8458;SDS011;4266;48.816;9.154;2022-08-03T06:00:36;6.93;;;4.70;;
8458;SDS011;4266;48.816;9.154;2022-08-03T06:03:02;5.78;;;4.80;;
8458;SDS011;4266;48.816;9.154;2022-08-03T06:05:27;6.05;;;4.72;;
8458;SDS011;4266;48.816;9.154;2022-08-03T06:07:53;7.50;;;4.60;;
8458;SDS011;4266;48.816;9.154;2022-08-03T06:10:19;5.90;;;4.62;;
8458;SDS011;4266;48.816;9.154;2022-08-03T06:12:45;9.10;;;5.37;;
8458;SDS011;4266;48.816;9.154;2022-08-03T06:15:11;5.03;;;4.57;;
8458;SDS011;4266;48.816;9.154;2022-08-03T06:17:43;6.07;;;4.80;;
8458;SDS011;4266;48.816;9.154;2022-08-03T06:20:02;9.40;;;4.87;;
8458;SDS011;4266;48.816;9.154;2022-08-03T06:22:28;4.68;;;4.30;;
8458;SDS011;4266;48.816;9.154;2022-08-03T06:24:55;6.53;;;4.47;;
8458;SDS011;4266;48.816;9.154;2022-08-03T06:27:20;4.53;;;4.12;;
8458;SDS011;4266;48.816;9.154;2022-08-03T06:29:47;5.12;;;4.50;;
8458;SDS011;4266;48.816;9.154;2022-08-03T06:32:12;6.60;;;4.22;;
8458;SDS011;4266;48.816;9.154;2022-08-03T06:34:38;7.37;;;4.72;;
8458;SDS011;4266;48.816;9.154;2022-08-03T06:37:04;7.37;;;4.35;;
8458;SDS011;4266;48.816;9.154;2022-08-03T06:39:31;7.62;;;4.57;;
8458;SDS011;4266;48.816;9.154;2022-08-03T06:41:56;6.28;;;4.12;;
8458;SDS011;4266;48.816;9.154;2022-08-03T06:44:22;4.18;;;3.78;;
8458;SDS011;4266;48.816;9.154;2022-08-03T06:46:48;5.53;;;4.10;;
8458;SDS011;4266;48.816;9.154;2022-08-03T06:49:13;7.53;;;4.50;;
8458;SDS011;4266;48.816;9.154;2022-08-03T06:51:40;4.70;;;3.87;;
8458;SDS011;4266;48.816;9.154;2022-08-03T06:54:05;5.22;;;3.67;;
8458;SDS011;4266;48.816;9.154;2022-08-03T06:56:31;6.82;;;4.32;;
8458;SDS011;4266;48.816;9.154;2022-08-03T06:58:57;8.32;;;4.07;;
8458;SDS011;4266;48.816;9.154;2022-08-03T07:01:22;4.45;;;3.85;;
8458;SDS011;4266;48.816;9.154;2022-08-03T07:03:48;8.18;;;4.78;;
8458;SDS011;4266;48.816;9.154;2022-08-03T07:06:14;5.82;;;4.03;;
8458;SDS011;4266;48.816;9.154;2022-08-03T07:08:39;5.15;;;3.97;;
8458;SDS011;4266;48.816;9.154;2022-08-03T07:11:05;7.45;;;4.90;;
8458;SDS011;4266;48.816;9.154;2022-08-03T07:13:30;5.57;;;4.32;;
8458;SDS011;4266;48.816;9.154;2022-08-03T07:15:56;5.95;;;4.10;;
8458;SDS011;4266;48.816;9.154;2022-08-03T07:18:22;4.53;;;4.12;;
8458;SDS011;4266;48.816;9.154;2022-08-03T07:20:47;6.87;;;3.97;;
8458;SDS011;4266;48.816;9.154;2022-08-03T07:23:13;5.12;;;4.35;;
8458;SDS011;4266;48.816;9.154;2022-08-03T07:25:39;4.45;;;3.80;;
8458;SDS011;4266;48.816;9.154;2022-08-03T07:28:05;4.45;;;4.00;;
8458;SDS011;4266;48.816;9.154;2022-08-03T07:30:31;5.82;;;4.10;;
8458;SDS011;4266;48.816;9.154;2022-08-03T07:32:56;5.18;;;4.40;;
8458;SDS011;4266;48.816;9.154;2022-08-03T07:35:22;4.72;;;3.92;;
8458;SDS011;4266;48.816;9.154;2022-08-03T07:37:49;4.30;;;3.90;;
8458;SDS011;4266;48.816;9.154;2022-08-03T07:40:14;4.82;;;4.00;;
8458;SDS011;4266;48.816;9.154;2022-08-03T07:42:40;4.90;;;3.90;;
8458;SDS011;4266;48.816;9.154;2022-08-03T07:45:06;6.53;;;3.62;;
8458;SDS011;4266;48.816;9.154;2022-08-03T07:47:33;4.80;;;3.60;;
8458;SDS011;4266;48.816;9.154;2022-08-03T07:49:59;3.67;;;3.35;;
8458;SDS011;4266;48.816;9.154;2022-08-03T07:52:24;3.47;;;3.17;;
8458;SDS011;4266;48.816;9.154;2022-08-03T07:54:57;3.50;;;3.20;;
8458;SDS011;4266;48.816;9.154;2022-08-03T07:57:23;3.42;;;3.10;;
8458;SDS011;4266;48.816;9.154;2022-08-03T07:59:49;3.97;;;3.30;;
8458;SDS011;4266;48.816;9.154;2022-08-03T08:02:15;4.00;;;3.62;;
8458;SDS011;4266;48.816;9.154;2022-08-03T08:04:40;7.62;;;3.50;;
8458;SDS011;4266;48.816;9.154;2022-08-03T08:07:07;3.25;;;2.95;;
8458;SDS011;4266;48.816;9.154;2022-08-03T08:09:33;3.00;;;2.80;;
8458;SDS011;4266;48.816;9.154;2022-08-03T08:11:59;3.40;;;3.10;;
8458;SDS011;4266;48.816;9.154;2022-08-03T08:14:24;3.10;;;2.75;;
8458;SDS011;4266;48.816;9.154;2022-08-03T08:16:51;3.12;;;2.92;;
8458;SDS011;4266;48.816;9.154;2022-08-03T08:19:17;4.37;;;2.90;;
8458;SDS011;4266;48.816;9.154;2022-08-03T08:21:42;3.90;;;2.80;;
8458;SDS011;4266;48.816;9.154;2022-08-03T08:24:09;3.75;;;2.72;;
8458;SDS011;4266;48.816;9.154;2022-08-03T08:26:35;3.10;;;2.78;;
8458;SDS011;4266;48.816;9.154;2022-08-03T08:29:01;2.83;;;2.60;;
8458;SDS011;4266;48.816;9.154;2022-08-03T08:31:26;3.17;;;2.30;;
8458;SDS011;4266;48.816;9.154;2022-08-03T08:33:53;3.00;;;2.60;;
8458;SDS011;4266;48.816;9.154;2022-08-03T08:36:18;2.90;;;2.70;;
8458;SDS011;4266;48.816;9.154;2022-08-03T08:38:44;4.75;;;2.67;;
8458;SDS011;4266;48.816;9.154;2022-08-03T08:41:10;5.10;;;2.83;;
8458;SDS011;4266;48.816;9.154;2022-08-03T08:43:35;3.40;;;2.58;;
8458;SDS011;4266;48.816;9.154;2022-08-03T08:46:01;3.75;;;2.58;;
8458;SDS011;4266;48.816;9.154;2022-08-03T08:48:27;8.85;;;2.37;;
8458;SDS011;4266;48.816;9.154;2022-08-03T08:50:53;3.87;;;2.53;;
8458;SDS011;4266;48.816;9.154;2022-08-03T08:53:18;2.60;;;2.37;;
8458;SDS011;4266;48.816;9.154;2022-08-03T08:55:45;5.85;;;2.75;;
8458;SDS011;4266;48.816;9.154;2022-08-03T08:58:10;2.47;;;2.28;;
8458;SDS011;4266;48.816;9.154;2022-08-03T09:00:36;4.25;;;2.17;;
8458;SDS011;4266;48.816;9.154;2022-08-03T09:03:01;4.05;;;2.45;;
8458;SDS011;4266;48.816;9.154;2022-08-03T09:05:27;2.35;;;2.25;;
8458;SDS011;4266;48.816;9.154;2022-08-03T09:07:52;3.10;;;2.33;;
8458;SDS011;4266;48.816;9.154;2022-08-03T09:10:19;2.40;;;2.20;;
8458;SDS011;4266;48.816;9.154;2022-08-03T09:12:45;2.45;;;2.25;;
8458;SDS011;4266;48.816;9.154;2022-08-03T09:15:20;2.35;;;2.00;;
8458;SDS011;4266;48.816;9.154;2022-08-03T09:17:47;2.17;;;1.98;;
8458;SDS011;4266;48.816;9.154;2022-08-03T09:20:12;2.60;;;2.33;;
8458;SDS011;4266;48.816;9.154;2022-08-03T09:25:21;2.75;;;1.90;;
8458;SDS011;4266;48.816;9.154;2022-08-03T09:27:45;3.62;;;2.30;;
8458;SDS011;4266;48.816;9.154;2022-08-03T09:30:16;2.60;;;2.40;;
8458;SDS011;4266;48.816;9.154;2022-08-03T09:32:41;2.12;;;1.83;;
8458;SDS011;4266;48.816;9.154;2022-08-03T09:35:07;2.60;;;2.10;;
8458;SDS011;4266;48.816;9.154;2022-08-03T09:37:33;2.10;;;2.00;;
8458;SDS011;4266;48.816;9.154;2022-08-03T09:39:59;2.12;;;1.90;;
8458;SDS011;4266;48.816;9.154;2022-08-03T09:42:25;2.45;;;2.00;;
8458;SDS011;4266;48.816;9.154;2022-08-03T09:44:51;2.72;;;2.05;;
8458;SDS011;4266;48.816;9.154;2022-08-03T09:49:57;1.87;;;1.65;;
8458;SDS011;4266;48.816;9.154;2022-08-03T09:52:28;2.05;;;1.87;;
8458;SDS011;4266;48.816;9.154;2022-08-03T09:54:50;2.00;;;1.90;;
8458;SDS011;4266;48.816;9.154;2022-08-03T09:57:19;5.65;;;2.20;;
8458;SDS011;4266;48.816;9.154;2022-08-03T09:59:44;2.40;;;1.92;;
8458;SDS011;4266;48.816;9.154;2022-08-03T10:02:19;2.20;;;1.80;;
8458;SDS011;4266;48.816;9.154;2022-08-03T10:04:45;1.87;;;1.65;;
8458;SDS011;4266;48.816;9.154;2022-08-03T10:07:04;1.60;;;1.50;;
8458;SDS011;4266;48.816;9.154;2022-08-03T10:09:30;1.90;;;1.80;;
8458;SDS011;4266;48.816;9.154;2022-08-03T10:11:56;2.10;;;1.90;;
8458;SDS011;4266;48.816;9.154;2022-08-03T10:14:22;3.72;;;1.65;;
8458;SDS011;4266;48.816;9.154;2022-08-03T10:16:48;2.75;;;1.90;;
8458;SDS011;4266;48.816;9.154;2022-08-03T10:19:13;2.33;;;2.12;;
8458;SDS011;4266;48.816;9.154;2022-08-03T10:21:41;2.17;;;1.98;;
8458;SDS011;4266;48.816;9.154;2022-08-03T10:24:07;2.03;;;1.90;;
8458;SDS011;4266;48.816;9.154;2022-08-03T10:26:34;2.80;;;2.10;;
8458;SDS011;4266;48.816;9.154;2022-08-03T10:29:01;4.50;;;1.90;;
8458;SDS011;4266;48.816;9.154;2022-08-03T10:31:25;1.92;;;1.83;;
8458;SDS011;4266;48.816;9.154;2022-08-03T10:33:51;2.35;;;1.90;;
8458;SDS011;4266;48.816;9.154;2022-08-03T10:36:16;2.12;;;1.90;;
8458;SDS011;4266;48.816;9.154;2022-08-03T10:38:43;1.83;;;1.75;;
8458;SDS011;4266;48.816;9.154;2022-08-03T10:41:09;1.83;;;1.73;;
8458;SDS011;4266;48.816;9.154;2022-08-03T10:43:41;2.00;;;1.90;;
8458;SDS011;4266;48.816;9.154;2022-08-03T10:46:09;2.20;;;1.98;;
8458;SDS011;4266;48.816;9.154;2022-08-03T10:48:35;2.08;;;1.90;;
8458;SDS011;4266;48.816;9.154;2022-08-03T10:51:00;2.12;;;2.00;;
8458;SDS011;4266;48.816;9.154;2022-08-03T10:53:36;2.00;;;1.90;;
8458;SDS011;4266;48.816;9.154;2022-08-03T10:56:02;2.17;;;2.08;;
8458;SDS011;4266;48.816;9.154;2022-08-03T11:01:17;1.95;;;1.85;;
8458;SDS011;4266;48.816;9.154;2022-08-03T11:04:13;1.70;;;1.62;;
8458;SDS011;4266;48.816;9.154;2022-08-03T11:06:38;1.98;;;1.87;;
8458;SDS011;4266;48.816;9.154;2022-08-03T11:09:15;1.90;;;1.80;;
8458;SDS011;4266;48.816;9.154;2022-08-03T11:11:42;2.33;;;2.15;;
8458;SDS011;4266;48.816;9.154;2022-08-03T11:14:10;5.15;;;2.03;;
8458;SDS011;4266;48.816;9.154;2022-08-03T11:16:35;2.10;;;2.00;;
8458;SDS011;4266;48.816;9.154;2022-08-03T11:19:02;1.87;;;1.77;;
8458;SDS011;4266;48.816;9.154;2022-08-03T11:24:04;2.12;;;2.03;;
8458;SDS011;4266;48.816;9.154;2022-08-03T11:26:32;1.90;;;1.80;;
8458;SDS011;4266;48.816;9.154;2022-08-03T11:29:25;2.03;;;1.92;;
8458;SDS011;4266;48.816;9.154;2022-08-03T11:34:12;1.90;;;1.80;;
8458;SDS011;4266;48.816;9.154;2022-08-03T11:39:15;2.50;;;2.28;;
8458;SDS011;4266;48.816;9.154;2022-08-03T11:41:41;2.53;;;2.05;;
8458;SDS011;4266;48.816;9.154;2022-08-03T11:44:07;2.72;;;1.80;;
8458;SDS011;4266;48.816;9.154;2022-08-03T11:46:35;1.98;;;1.87;;
8458;SDS011;4266;48.816;9.154;2022-08-03T11:49:02;2.20;;;2.10;;
8458;SDS011;4266;48.816;9.154;2022-08-03T11:51:26;1.95;;;1.85;;
8458;SDS011;4266;48.816;9.154;2022-08-03T11:53:54;2.00;;;1.90;;
8458;SDS011;4266;48.816;9.154;2022-08-03T11:56:20;1.98;;;1.87;;
8458;SDS011;4266;48.816;9.154;2022-08-03T11:58:47;2.87;;;1.85;;
8458;SDS011;4266;48.816;9.154;2022-08-03T12:01:12;2.10;;;2.00;;
8458;SDS011;4266;48.816;9.154;2022-08-03T12:03:38;2.00;;;1.90;;
8458;SDS011;4266;48.816;9.154;2022-08-03T12:06:07;2.40;;;2.10;;
8458;SDS011;4266;48.816;9.154;2022-08-03T12:08:31;1.70;;;1.70;;
8458;SDS011;4266;48.816;9.154;2022-08-03T12:10:57;1.90;;;1.80;;
8458;SDS011;4266;48.816;9.154;2022-08-03T12:13:22;2.10;;;1.95;;
8458;SDS011;4266;48.816;9.154;2022-08-03T12:15:51;5.07;;;2.00;;
8458;SDS011;4266;48.816;9.154;2022-08-03T12:18:16;2.10;;;2.00;;
8458;SDS011;4266;48.816;9.154;2022-08-03T12:20:42;2.42;;;2.20;;
8458;SDS011;4266;48.816;9.154;2022-08-03T12:23:08;2.08;;;1.98;;
8458;SDS011;4266;48.816;9.154;2022-08-03T12:25:34;1.90;;;1.80;;
8458;SDS011;4266;48.816;9.154;2022-08-03T12:28:07;2.50;;;2.00;;
8458;SDS011;4266;48.816;9.154;2022-08-03T12:30:31;2.10;;;2.00;;
8458;SDS011;4266;48.816;9.154;2022-08-03T12:32:58;2.40;;;2.15;;
8458;SDS011;4266;48.816;9.154;2022-08-03T12:35:24;2.10;;;2.00;;
8458;SDS011;4266;48.816;9.154;2022-08-03T12:37:50;2.37;;;2.12;;
8458;SDS011;4266;48.816;9.154;2022-08-03T12:40:23;2.47;;;2.28;;
8458;SDS011;4266;48.816;9.154;2022-08-03T12:42:49;1.90;;;1.80;;
8458;SDS011;4266;48.816;9.154;2022-08-03T12:45:23;1.92;;;1.83;;
8458;SDS011;4266;48.816;9.154;2022-08-03T12:47:50;3.15;;;2.10;;
8458;SDS011;4266;48.816;9.154;2022-08-03T12:52:57;3.45;;;2.08;;
8458;SDS011;4266;48.816;9.154;2022-08-03T12:55:23;2.08;;;1.98;;
8458;SDS011;4266;48.816;9.154;2022-08-03T12:57:48;1.70;;;1.70;;
8458;SDS011;4266;48.816;9.154;2022-08-03T13:00:16;2.97;;;2.40;;
8458;SDS011;4266;48.816;9.154;2022-08-03T13:02:43;2.62;;;2.03;;
8458;SDS011;4266;48.816;9.154;2022-08-03T13:05:10;2.60;;;2.20;;
8458;SDS011;4266;48.816;9.154;2022-08-03T13:07:39;2.12;;;1.92;;
8458;SDS011;4266;48.816;9.154;2022-08-03T13:10:05;11.23;;;2.85;;
8458;SDS011;4266;48.816;9.154;2022-08-03T13:12:32;2.00;;;1.90;;
8458;SDS011;4266;48.816;9.154;2022-08-03T13:14:58;2.78;;;2.08;;
8458;SDS011;4266;48.816;9.154;2022-08-03T13:17:23;1.90;;;1.80;;
8458;SDS011;4266;48.816;9.154;2022-08-03T13:19:50;2.28;;;2.17;;
8458;SDS011;4266;48.816;9.154;2022-08-03T13:22:17;2.10;;;2.00;;
8458;SDS011;4266;48.816;9.154;2022-08-03T13:24:43;2.15;;;2.05;;
8458;SDS011;4266;48.816;9.154;2022-08-03T13:27:09;2.20;;;2.10;;
8458;SDS011;4266;48.816;9.154;2022-08-03T13:29:35;1.90;;;1.80;;
8458;SDS011;4266;48.816;9.154;2022-08-03T13:32:01;2.07;;;1.93;;
8458;SDS011;4266;48.816;9.154;2022-08-03T13:34:27;2.12;;;2.03;;
8458;SDS011;4266;48.816;9.154;2022-08-03T13:36:52;2.20;;;2.10;;
8458;SDS011;4266;48.816;9.154;2022-08-03T13:39:18;2.28;;;1.90;;
8458;SDS011;4266;48.816;9.154;2022-08-03T13:41:44;2.03;;;1.92;;
8458;SDS011;4266;48.816;9.154;2022-08-03T13:44:09;2.40;;;2.20;;
8458;SDS011;4266;48.816;9.154;2022-08-03T13:46:35;2.30;;;2.10;;
8458;SDS011;4266;48.816;9.154;2022-08-03T13:49:01;2.00;;;1.90;;
8458;SDS011;4266;48.816;9.154;2022-08-03T13:51:26;3.25;;;1.95;;
8458;SDS011;4266;48.816;9.154;2022-08-03T13:53:52;2.42;;;2.25;;
8458;SDS011;4266;48.816;9.154;2022-08-03T13:56:18;2.03;;;1.92;;
8458;SDS011;4266;48.816;9.154;2022-08-03T13:58:44;2.00;;;1.90;;
8458;SDS011;4266;48.816;9.154;2022-08-03T14:01:10;2.90;;;2.08;;
8458;SDS011;4266;48.816;9.154;2022-08-03T14:03:35;2.95;;;2.30;;
8458;SDS011;4266;48.816;9.154;2022-08-03T14:06:01;2.05;;;1.95;;
8458;SDS011;4266;48.816;9.154;2022-08-03T14:08:27;2.58;;;2.37;;
8458;SDS011;4266;48.816;9.154;2022-08-03T14:10:53;2.90;;;2.05;;
8458;SDS011;4266;48.816;9.154;2022-08-03T14:13:18;4.12;;;2.15;;
8458;SDS011;4266;48.816;9.154;2022-08-03T14:15:45;2.20;;;2.10;;
8458;SDS011;4266;48.816;9.154;2022-08-03T14:18:10;2.30;;;2.20;;
8458;SDS011;4266;48.816;9.154;2022-08-03T14:20:35;2.40;;;2.30;;
8458;SDS011;4266;48.816;9.154;2022-08-03T14:23:08;2.87;;;2.00;;
8458;SDS011;4266;48.816;9.154;2022-08-03T14:25:34;2.30;;;2.10;;
8458;SDS011;4266;48.816;9.154;2022-08-03T14:28:01;2.20;;;2.00;;
8458;SDS011;4266;48.816;9.154;2022-08-03T14:30:27;2.50;;;2.30;;
8458;SDS011;4266;48.816;9.154;2022-08-03T14:32:53;2.33;;;2.22;;
8458;SDS011;4266;48.816;9.154;2022-08-03T14:35:19;2.30;;;2.20;;
8458;SDS011;4266;48.816;9.154;2022-08-03T14:37:45;2.28;;;2.10;;
8458;SDS011;4266;48.816;9.154;2022-08-03T14:40:11;4.03;;;2.28;;
8458;SDS011;4266;48.816;9.154;2022-08-03T14:42:36;3.25;;;2.25;;
8458;SDS011;4266;48.816;9.154;2022-08-03T14:45:02;2.87;;;2.30;;
8458;SDS011;4266;48.816;9.154;2022-08-03T14:47:28;2.37;;;2.17;;
8458;SDS011;4266;48.816;9.154;2022-08-03T14:49:55;2.70;;;2.10;;
8458;SDS011;4266;48.816;9.154;2022-08-03T14:52:22;2.42;;;2.33;;
8458;SDS011;4266;48.816;9.154;2022-08-03T14:54:48;2.30;;;2.20;;
8458;SDS011;4266;48.816;9.154;2022-08-03T14:57:14;2.15;;;1.90;;
8458;SDS011;4266;48.816;9.154;2022-08-03T14:59:40;2.70;;;2.50;;
8458;SDS011;4266;48.816;9.154;2022-08-03T15:02:05;2.30;;;2.20;;
8458;SDS011;4266;48.816;9.154;2022-08-03T15:04:31;2.28;;;2.08;;
8458;SDS011;4266;48.816;9.154;2022-08-03T15:06:57;2.53;;;2.30;;
8458;SDS011;4266;48.816;9.154;2022-08-03T15:09:22;2.20;;;2.10;;
8458;SDS011;4266;48.816;9.154;2022-08-03T15:11:48;3.08;;;2.60;;
8458;SDS011;4266;48.816;9.154;2022-08-03T15:14:14;2.10;;;2.00;;
8458;SDS011;4266;48.816;9.154;2022-08-03T15:16:39;2.22;;;2.12;;
8458;SDS011;4266;48.816;9.154;2022-08-03T15:19:06;2.97;;;2.12;;
8458;SDS011;4266;48.816;9.154;2022-08-03T15:21:31;2.40;;;2.10;;
8458;SDS011;4266;48.816;9.154;2022-08-03T15:23:57;3.30;;;2.40;;
8458;SDS011;4266;48.816;9.154;2022-08-03T15:26:23;2.20;;;2.00;;
8458;SDS011;4266;48.816;9.154;2022-08-03T15:28:48;2.30;;;2.20;;
8458;SDS011;4266;48.816;9.154;2022-08-03T15:31:19;2.33;;;2.20;;